Time;durP1;ratioP1;P1;durP2;ratioP2;P2;SDS_P1;SDS_P2;PMS_P1;PMS_P2;Temp;Humidity;BMP_temperature;BMP_pressure;BME280_temperature;BME280_humidity;BME280_pressure;Samples;Min_cycle;Max_cycle;Signal;HPM_P1;HPM_P2
2022/09/29 00:01:18;;;;;;;1.05;1.05;;;11.50;99.90;;;;;;5073728;28;20204;-83
2022/09/29 00:03:46;;;;;;;0.70;0.70;;;11.40;99.90;;;;;;5073633;28;20189;-83
2022/09/29 00:06:16;;;;;;;1.23;1.13;;;11.40;99.90;;;;;;5073195;28;20225;-83
2022/09/29 00:08:45;;;;;;;1.15;1.10;;;11.40;99.90;;;;;;5073277;28;20212;-83
2022/09/29 00:11:15;;;;;;;1.00;1.00;;;11.40;99.90;;;;;;5073527;28;20205;-83
2022/09/29 00:13:44;;;;;;;1.23;1.00;;;11.40;99.90;;;;;;5073105;28;20204;-84
2022/09/29 00:16:13;;;;;;;1.20;1.20;;;11.50;99.90;;;;;;5074027;28;20217;-83
2022/09/29 00:18:43;;;;;;;1.63;1.25;;;11.50;99.90;;;;;;5072725;28;20208;-84
2022/09/29 00:21:13;;;;;;;1.13;1.13;;;11.40;99.90;;;;;;5073333;28;20224;-84
2022/09/29 00:23:41;;;;;;;1.00;1.00;;;11.50;99.90;;;;;;5073286;28;20193;-84
2022/09/29 00:26:12;;;;;;;2.42;0.85;;;11.50;99.90;;;;;;5073180;28;20224;-84
2022/09/29 00:28:45;;;;;;;2.83;1.02;;;11.40;99.90;;;;;;5072920;28;20189;-84
2022/09/29 00:31:14;;;;;;;1.02;1.02;;;11.40;99.90;;;;;;5073251;28;20224;-84
2022/09/29 00:33:44;;;;;;;0.95;0.82;;;11.30;99.90;;;;;;5072973;28;20254;-83
2022/09/29 00:36:14;;;;;;;1.30;1.20;;;11.30;99.90;;;;;;5072733;28;20220;-83
2022/09/29 00:38:44;;;;;;;0.90;0.90;;;11.30;99.90;;;;;;5073213;28;20201;-83
2022/09/29 00:41:16;;;;;;;1.50;1.40;;;11.40;99.90;;;;;;5072754;28;20204;-83
2022/09/29 00:43:51;;;;;;;1.38;1.25;;;11.40;99.90;;;;;;5073185;28;20219;-84
2022/09/29 00:46:29;;;;;;;1.35;1.25;;;11.40;99.90;;;;;;5072563;28;20216;-84
2022/09/29 00:49:02;;;;;;;0.85;0.85;;;11.30;99.90;;;;;;5073041;28;20200;-83
2022/09/29 00:51:32;;;;;;;1.30;1.20;;;11.30;99.90;;;;;;5072919;28;20201;-84
2022/09/29 00:54:01;;;;;;;1.00;1.00;;;11.30;99.90;;;;;;5073471;28;20228;-83
2022/09/29 00:56:31;;;;;;;0.98;0.98;;;11.20;99.90;;;;;;5072401;28;20221;-84
2022/09/29 00:59:03;;;;;;;1.05;1.05;;;11.10;99.90;;;;;;5072794;28;20193;-83
2022/09/29 01:01:32;;;;;;;1.17;1.08;;;11.10;99.90;;;;;;5073094;28;20215;-83
2022/09/29 01:04:05;;;;;;;1.00;1.00;;;11.10;99.90;;;;;;5072070;28;20224;-83
2022/09/29 01:06:36;;;;;;;1.00;1.00;;;11.10;99.90;;;;;;5072760;28;20228;-83
2022/09/29 01:09:07;;;;;;;1.33;1.23;;;11.10;99.90;;;;;;5072573;28;20204;-83
2022/09/29 01:11:36;;;;;;;1.75;1.45;;;11.00;99.90;;;;;;5072782;28;20212;-83
2022/09/29 01:14:06;;;;;;;2.67;1.55;;;11.00;99.90;;;;;;5072860;28;20204;-83
2022/09/29 01:16:36;;;;;;;1.25;1.25;;;11.00;99.90;;;;;;5072928;28;20217;-83
2022/09/29 01:19:09;;;;;;;2.13;1.58;;;11.00;99.90;;;;;;5072430;28;20212;-83
2022/09/29 01:21:49;;;;;;;2.35;1.60;;;11.00;99.90;;;;;;5073096;28;20198;-83
2022/09/29 01:24:52;;;;;;;1.13;1.13;;;11.10;99.90;;;;;;5072528;28;20204;-83
2022/09/29 01:27:48;;;;;;;1.42;1.40;;;11.00;99.90;;;;;;5069816;28;20209;-83
2022/09/29 01:30:21;;;;;;;1.58;1.48;;;11.00;99.90;;;;;;5004409;28;20200;-83
2022/09/29 01:33:17;;;;;;;1.60;1.50;;;11.00;99.90;;;;;;5076386;28;20208;-83
2022/09/29 01:35:57;;;;;;;2.08;1.95;;;11.00;99.90;;;;;;5076710;28;20225;-83
2022/09/29 01:38:42;;;;;;;1.50;1.38;;;11.00;99.90;;;;;;5076008;28;20207;-85
2022/09/29 01:41:14;;;;;;;4.82;1.65;;;11.00;99.90;;;;;;5076267;28;20209;-84
2022/09/29 01:43:48;;;;;;;1.40;1.30;;;11.00;99.90;;;;;;5076253;28;20280;-83
2022/09/29 01:46:22;;;;;;;2.05;1.90;;;11.00;99.90;;;;;;5076004;28;20229;-84
2022/09/29 01:48:55;;;;;;;2.40;2.00;;;11.00;99.90;;;;;;5075983;28;20216;-83
2022/09/29 01:51:29;;;;;;;2.13;1.38;;;11.00;99.90;;;;;;5076264;28;20208;-82
2022/09/29 01:54:03;;;;;;;1.58;1.48;;;11.00;99.90;;;;;;5056318;28;20212;-83
2022/09/29 01:56:37;;;;;;;1.95;1.85;;;11.00;99.90;;;;;;5059546;28;20217;-83
2022/09/29 01:59:12;;;;;;;1.80;1.70;;;11.00;99.90;;;;;;5076412;28;20295;-83
2022/09/29 02:01:44;;;;;;;1.98;1.80;;;11.00;99.90;;;;;;5075591;28;20189;-85
2022/09/29 02:04:18;;;;;;;1.80;1.70;;;11.00;99.90;;;;;;5075880;28;20213;-82
2022/09/29 02:06:52;;;;;;;1.50;1.40;;;11.00;99.90;;;;;;5075610;28;20209;-83
2022/09/29 02:09:25;;;;;;;1.92;1.70;;;11.00;99.90;;;;;;5075848;28;20216;-82
2022/09/29 02:11:56;;;;;;;1.30;1.30;;;11.00;99.90;;;;;;5075908;28;20207;-83
2022/09/29 02:14:28;;;;;;;1.75;1.58;;;11.00;99.90;;;;;;5075955;28;20207;-83
2022/09/29 02:17:01;;;;;;;1.60;1.50;;;10.90;99.90;;;;;;5075459;28;20197;-82
2022/09/29 02:19:34;;;;;;;1.88;1.50;;;10.90;99.90;;;;;;5075431;28;20208;-83
2022/09/29 02:22:02;;;;;;;1.52;1.42;;;10.90;99.90;;;;;;5075897;28;20239;-83
2022/09/29 02:24:31;;;;;;;1.17;1.17;;;10.90;99.90;;;;;;5075484;28;20209;-83
2022/09/29 02:27:00;;;;;;;1.20;1.20;;;10.90;99.90;;;;;;5075696;28;20217;-83
2022/09/29 02:29:28;;;;;;;1.50;1.38;;;10.90;99.90;;;;;;5075244;28;20200;-82
2022/09/29 02:32:00;;;;;;;1.40;1.30;;;10.90;99.90;;;;;;5075280;28;20212;-82
2022/09/29 02:34:35;;;;;;;1.33;1.23;;;10.80;99.90;;;;;;5075060;28;20201;-82
2022/09/29 02:37:15;;;;;;;1.23;1.20;;;10.90;99.90;;;;;;5075700;28;20197;-82
2022/09/29 02:39:53;;;;;;;0.95;0.88;;;10.80;99.90;;;;;;5074122;28;20204;-82
2022/09/29 02:42:29;;;;;;;1.00;0.90;;;10.80;99.90;;;;;;5074991;28;20211;-82
2022/09/29 02:45:18;;;;;;;1.67;1.58;;;10.80;99.90;;;;;;5074744;28;20274;-82
2022/09/29 02:48:01;;;;;;;2.05;1.33;;;10.80;99.90;;;;;;5074517;28;20213;-82
2022/09/29 02:50:43;;;;;;;1.48;1.38;;;10.70;99.90;;;;;;5074978;28;20208;-82
2022/09/29 02:53:21;;;;;;;1.65;1.55;;;10.70;99.90;;;;;;5074085;28;20299;-82
2022/09/29 02:55:57;;;;;;;1.80;1.70;;;10.70;99.90;;;;;;5074620;28;20229;-82
2022/09/29 02:58:31;;;;;;;2.28;2.08;;;10.70;99.90;;;;;;5073113;28;20229;-81
2022/09/29 03:01:00;;;;;;;2.15;1.98;;;10.70;99.90;;;;;;5075321;28;20227;-83
2022/09/29 03:03:29;;;;;;;1.80;1.70;;;10.60;99.90;;;;;;5074018;28;20258;-82
2022/09/29 03:05:59;;;;;;;2.25;1.65;;;10.60;99.90;;;;;;5074524;28;20229;-82
2022/09/29 03:08:27;;;;;;;1.73;1.63;;;10.60;99.90;;;;;;5074285;28;20208;-82
2022/09/29 03:10:55;;;;;;;1.95;1.85;;;10.60;99.90;;;;;;5074742;28;20205;-81
2022/09/29 03:13:23;;;;;;;1.92;1.83;;;10.50;99.90;;;;;;5074317;28;20213;-81
2022/09/29 03:15:52;;;;;;;2.60;2.22;;;10.50;99.90;;;;;;5074473;28;20235;-81
2022/09/29 03:18:21;;;;;;;2.33;2.13;;;10.50;99.90;;;;;;5074198;28;20201;-82
2022/09/29 03:20:49;;;;;;;2.38;2.25;;;10.50;99.90;;;;;;5074267;28;20205;-82
2022/09/29 03:23:19;;;;;;;3.35;3.05;;;10.50;99.90;;;;;;5074151;28;20208;-81
2022/09/29 03:25:47;;;;;;;3.15;2.95;;;10.40;99.90;;;;;;5074205;28;20225;-82
2022/09/29 03:28:16;;;;;;;5.43;3.55;;;10.40;99.90;;;;;;5074943;28;20209;-82
2022/09/29 03:30:45;;;;;;;3.97;3.58;;;10.40;99.90;;;;;;5073826;28;20190;-82
2022/09/29 03:33:13;;;;;;;4.47;3.60;;;10.40;99.90;;;;;;5074029;28;20204;-82
2022/09/29 03:35:42;;;;;;;4.97;4.43;;;10.40;99.90;;;;;;5073856;28;20224;-83
2022/09/29 03:38:12;;;;;;;4.63;4.20;;;10.30;99.90;;;;;;5074192;28;20216;-82
2022/09/29 03:40:41;;;;;;;4.60;4.18;;;10.30;99.90;;;;;;5074027;28;20201;-82
2022/09/29 03:43:09;;;;;;;4.05;3.17;;;10.30;99.90;;;;;;5073778;28;20209;-82
2022/09/29 03:45:38;;;;;;;4.85;4.30;;;10.30;99.90;;;;;;5073788;28;20228;-82
2022/09/29 03:48:06;;;;;;;5.20;4.70;;;10.30;99.90;;;;;;5073688;28;20294;-82
2022/09/29 03:50:34;;;;;;;4.57;4.07;;;10.30;99.90;;;;;;5073387;28;20208;-82
2022/09/29 03:53:02;;;;;;;4.07;3.67;;;10.30;99.90;;;;;;5072677;28;20205;-82
2022/09/29 03:55:30;;;;;;;4.50;3.85;;;10.40;99.90;;;;;;5074151;28;20217;-81
2022/09/29 03:58:00;;;;;;;3.38;3.17;;;10.40;99.90;;;;;;5073901;28;20193;-81
2022/09/29 04:00:28;;;;;;;4.13;3.72;;;10.40;99.90;;;;;;5074085;28;20231;-82
2022/09/29 04:02:57;;;;;;;3.13;2.92;;;10.40;99.90;;;;;;5073624;28;20231;-82
2022/09/29 04:05:27;;;;;;;2.45;2.35;;;10.40;99.90;;;;;;5073925;28;20220;-82
2022/09/29 04:07:56;;;;;;;3.05;2.75;;;10.40;99.90;;;;;;5073181;28;20214;-81
2022/09/29 04:10:24;;;;;;;2.88;2.60;;;10.40;99.90;;;;;;5073612;28;20213;-82
2022/09/29 04:12:52;;;;;;;2.20;2.00;;;10.40;99.90;;;;;;5073050;28;20208;-81
2022/09/29 04:15:22;;;;;;;2.33;2.08;;;10.40;99.90;;;;;;5073236;28;20225;-81
2022/09/29 04:17:50;;;;;;;2.40;2.20;;;10.30;99.90;;;;;;5072750;28;20201;-81
2022/09/29 04:20:24;;;;;;;2.10;2.00;;;10.40;99.90;;;;;;5073231;28;20205;-81
2022/09/29 04:22:53;;;;;;;3.28;2.42;;;10.30;99.90;;;;;;5073248;28;20200;-81
2022/09/29 04:25:21;;;;;;;2.13;2.03;;;10.40;99.90;;;;;;5073098;28;20239;-82
2022/09/29 04:27:50;;;;;;;2.42;2.22;;;10.40;99.90;;;;;;5073008;28;20228;-82
2022/09/29 04:30:18;;;;;;;4.60;2.25;;;10.40;99.90;;;;;;5073341;28;20210;-82
2022/09/29 04:32:48;;;;;;;2.95;2.65;;;10.40;99.90;;;;;;5073082;28;20208;-81
2022/09/29 04:35:17;;;;;;;2.75;2.53;;;10.40;99.90;;;;;;5073698;28;20228;-81
2022/09/29 04:37:45;;;;;;;2.58;2.38;;;10.40;99.90;;;;;;5072648;28;20189;-82
2022/09/29 04:40:13;;;;;;;2.60;2.40;;;10.40;99.90;;;;;;5072515;28;20204;-81
2022/09/29 04:42:42;;;;;;;2.75;2.47;;;10.30;99.90;;;;;;5071884;28;20203;-83
2022/09/29 04:45:10;;;;;;;2.33;2.22;;;10.30;99.90;;;;;;5073313;28;20233;-81
2022/09/29 04:47:38;;;;;;;14.27;3.80;;;10.30;99.90;;;;;;5072664;28;20224;-82
2022/09/29 04:50:09;;;;;;;2.05;1.95;;;10.30;99.90;;;;;;5072789;28;20207;-82
2022/09/29 04:52:41;;;;;;;2.08;1.90;;;10.30;99.90;;;;;;5072794;28;20201;-82
2022/09/29 04:55:11;;;;;;;3.17;2.20;;;10.30;99.90;;;;;;5072656;28;20225;-82
2022/09/29 04:57:39;;;;;;;2.00;1.90;;;10.30;99.90;;;;;;5073036;28;20194;-82
2022/09/29 05:00:09;;;;;;;2.33;2.13;;;10.30;99.90;;;;;;5073175;28;20207;-82
2022/09/29 05:02:38;;;;;;;2.22;2.00;;;10.30;99.90;;;;;;5073338;28;20209;-82
2022/09/29 05:05:11;;;;;;;2.65;2.45;;;10.30;99.90;;;;;;5076786;28;20223;-82
2022/09/29 05:07:40;;;;;;;7.35;2.58;;;10.30;99.90;;;;;;5076707;28;20220;-83
2022/09/29 05:10:09;;;;;;;2.05;1.77;;;10.30;99.90;;;;;;5076359;28;20188;-82
2022/09/29 05:12:37;;;;;;;2.13;1.92;;;10.30;99.90;;;;;;5076796;28;20280;-89
2022/09/29 05:15:07;;;;;;;2.97;2.67;;;10.30;99.90;;;;;;5076555;28;20219;-82
2022/09/29 05:17:35;;;;;;;2.28;2.10;;;10.30;99.90;;;;;;5076860;28;20185;-82
2022/09/29 05:20:04;;;;;;;2.08;1.98;;;10.40;99.90;;;;;;5076747;28;20221;-82
2022/09/29 05:23:26;;;;;;;4.15;2.50;;;10.30;99.90;;;;;;5076687;28;20217;-83
2022/09/29 05:25:55;;;;;;;4.35;2.03;;;10.40;99.90;;;;;;5058866;28;20225;-84
2022/09/29 05:28:24;;;;;;;1.98;1.88;;;10.40;99.90;;;;;;5075644;28;20229;-84
2022/09/29 05:30:52;;;;;;;3.13;2.08;;;10.40;99.90;;;;;;5076085;28;20203;-83
2022/09/29 05:33:20;;;;;;;2.63;2.42;;;10.40;99.90;;;;;;5076521;28;20201;-84
2022/09/29 05:35:48;;;;;;;1.95;1.85;;;10.40;99.90;;;;;;5076296;28;20225;-83
2022/09/29 05:38:16;;;;;;;1.60;1.50;;;10.50;99.90;;;;;;5075893;28;20193;-81
2022/09/29 05:40:45;;;;;;;1.80;1.70;;;10.50;99.90;;;;;;5076400;28;20205;-84
2022/09/29 05:43:14;;;;;;;1.13;1.13;;;10.50;99.90;;;;;;5076543;28;20209;-83
2022/09/29 05:45:43;;;;;;;2.78;2.58;;;10.40;99.90;;;;;;5075946;28;20220;-86
2022/09/29 05:48:11;;;;;;;1.95;1.80;;;10.40;99.90;;;;;;5075543;28;20304;-84
2022/09/29 05:50:42;;;;;;;2.45;2.25;;;10.30;99.90;;;;;;5075192;28;20194;-84
2022/09/29 05:53:10;;;;;;;4.03;2.00;;;10.30;99.90;;;;;;5076317;28;20229;-83
2022/09/29 05:55:39;;;;;;;2.30;2.08;;;10.30;99.90;;;;;;5075331;28;20217;-83
2022/09/29 05:58:07;;;;;;;1.35;1.35;;;10.30;99.90;;;;;;5076069;28;20213;-82
2022/09/29 06:00:37;;;;;;;2.22;2.13;;;10.30;99.90;;;;;;5075191;28;20209;-82
2022/09/29 06:03:05;;;;;;;2.97;2.33;;;10.30;99.90;;;;;;5075026;28;20201;-83
2022/09/29 06:05:34;;;;;;;2.47;2.28;;;10.30;99.90;;;;;;5074721;28;20284;-83
2022/09/29 06:08:02;;;;;;;12.13;2.10;;;10.30;99.90;;;;;;5074606;28;20224;-83
2022/09/29 06:10:31;;;;;;;4.45;2.75;;;10.30;99.90;;;;;;5074651;28;20208;-83
2022/09/29 06:13:00;;;;;;;1.83;1.73;;;10.20;99.90;;;;;;5074925;28;20201;-82
2022/09/29 06:15:28;;;;;;;12.43;2.28;;;10.20;99.90;;;;;;5074237;28;20213;-82
2022/09/29 06:17:59;;;;;;;2.55;2.35;;;10.20;99.90;;;;;;5074709;28;20201;-81
2022/09/29 06:20:28;;;;;;;2.42;2.22;;;10.10;99.90;;;;;;5074815;28;20204;-81
2022/09/29 06:22:56;;;;;;;2.67;2.40;;;10.10;99.90;;;;;;5074806;28;20216;-82
2022/09/29 06:25:24;;;;;;;3.72;1.98;;;10.10;99.90;;;;;;5074685;28;20233;-82
2022/09/29 06:27:53;;;;;;;5.15;1.75;;;10.00;99.90;;;;;;5074477;28;20228;-81
2022/09/29 06:30:21;;;;;;;4.65;2.28;;;10.00;99.90;;;;;;5073846;28;20209;-82
2022/09/29 06:32:49;;;;;;;2.10;1.90;;;10.00;99.90;;;;;;5074448;28;20209;-82
2022/09/29 06:38:04;;;;;;;2.10;1.95;;;10.00;99.90;;;;;;5074200;28;20205;-82
2022/09/29 06:40:32;;;;;;;2.45;2.30;;;10.10;99.90;;;;;;5073958;28;20205;-82
2022/09/29 06:43:01;;;;;;;2.67;1.83;;;10.10;99.90;;;;;;5073734;28;20231;-82
2022/09/29 06:45:30;;;;;;;1.95;1.85;;;10.10;99.90;;;;;;5074178;28;20224;-82
2022/09/29 06:47:59;;;;;;;2.10;2.00;;;10.10;99.90;;;;;;5074812;28;20229;-82
2022/09/29 06:50:29;;;;;;;3.10;2.80;;;10.20;99.90;;;;;;5074483;28;20213;-82
2022/09/29 06:52:57;;;;;;;2.40;2.20;;;10.20;99.90;;;;;;5074627;28;20213;-82
2022/09/29 06:55:32;;;;;;;1.45;1.42;;;10.30;99.90;;;;;;5074226;28;20235;-82
2022/09/29 06:58:00;;;;;;;4.68;3.40;;;10.40;99.90;;;;;;5074973;28;20197;-82
2022/09/29 07:00:32;;;;;;;2.03;1.92;;;10.50;99.90;;;;;;5074435;28;20219;-82
2022/09/29 07:03:00;;;;;;;2.38;2.17;;;10.50;99.90;;;;;;5074467;28;20205;-82
2022/09/29 07:05:31;;;;;;;5.07;2.67;;;10.60;99.90;;;;;;5074208;28;20225;-82
2022/09/29 07:08:00;;;;;;;2.58;2.38;;;10.70;99.90;;;;;;5074356;28;20212;-82
2022/09/29 07:10:28;;;;;;;2.30;2.10;;;10.80;99.90;;;;;;5074174;28;20300;-82
2022/09/29 07:12:57;;;;;;;2.25;2.10;;;10.80;99.90;;;;;;5074523;28;20205;-82
2022/09/29 07:15:30;;;;;;;2.05;1.95;;;10.90;99.90;;;;;;5074335;28;20239;-82
2022/09/29 07:17:59;;;;;;;2.17;1.98;;;11.00;99.90;;;;;;5074179;28;20215;-82
2022/09/29 07:20:30;;;;;;;2.40;2.20;;;11.10;99.90;;;;;;5073724;28;20205;-82
2022/09/29 07:22:59;;;;;;;2.13;1.85;;;11.10;99.90;;;;;;5074598;28;20205;-82
2022/09/29 07:25:27;;;;;;;2.42;2.08;;;11.30;99.90;;;;;;5074080;28;20229;-82
2022/09/29 07:28:15;;;;;;;2.53;2.33;;;11.30;99.90;;;;;;5072861;28;20204;-82
2022/09/29 07:30:43;;;;;;;4.72;2.28;;;11.30;99.90;;;;;;5073536;28;20205;-82
2022/09/29 07:33:11;;;;;;;1.58;1.50;;;11.40;99.90;;;;;;5073774;28;20213;-82
2022/09/29 07:35:41;;;;;;;1.88;1.70;;;11.40;99.90;;;;;;5073715;28;20283;-82
2022/09/29 07:38:10;;;;;;;1.80;1.70;;;11.40;99.90;;;;;;5073724;28;20212;-82
2022/09/29 07:40:38;;;;;;;2.05;1.60;;;11.40;99.90;;;;;;5073884;28;20208;-82
2022/09/29 07:43:06;;;;;;;1.70;1.60;;;11.50;99.90;;;;;;5073481;28;20204;-81
2022/09/29 07:45:35;;;;;;;1.50;1.40;;;11.50;99.90;;;;;;5073428;28;20229;-81
2022/09/29 07:48:03;;;;;;;2.00;1.90;;;11.60;99.90;;;;;;5073393;28;20288;-82
2022/09/29 07:50:32;;;;;;;1.90;1.65;;;11.50;99.90;;;;;;5072898;28;20224;-82
2022/09/29 07:53:01;;;;;;;2.95;2.22;;;11.60;99.90;;;;;;5073496;28;20208;-81
2022/09/29 07:55:29;;;;;;;1.58;1.48;;;11.60;99.90;;;;;;5073343;28;20232;-81
2022/09/29 07:57:57;;;;;;;2.40;2.20;;;11.60;99.90;;;;;;5073444;28;20209;-81
2022/09/29 08:00:26;;;;;;;1.35;1.35;;;11.80;99.90;;;;;;5073225;28;20220;-81
2022/09/29 08:02:54;;;;;;;2.50;2.10;;;11.80;99.90;;;;;;5073343;28;20208;-81
2022/09/29 08:05:22;;;;;;;3.42;2.28;;;11.90;99.90;;;;;;5073065;28;20248;-81
2022/09/29 08:07:52;;;;;;;2.10;1.90;;;12.00;99.90;;;;;;5073184;28;20208;-81
2022/09/29 08:10:22;;;;;;;1.67;1.58;;;12.10;99.90;;;;;;5072552;28;20221;-82
2022/09/29 08:12:50;;;;;;;1.35;1.30;;;12.20;99.90;;;;;;5073210;28;20231;-82
2022/09/29 08:15:18;;;;;;;1.70;1.60;;;12.30;99.90;;;;;;5072985;28;20232;-82
2022/09/29 08:17:47;;;;;;;1.30;1.20;;;12.40;99.90;;;;;;5073210;28;20209;-82
2022/09/29 08:20:15;;;;;;;3.17;1.92;;;12.50;99.90;;;;;;5072812;28;20208;-82
2022/09/29 08:22:43;;;;;;;2.88;2.17;;;12.70;99.90;;;;;;5072727;28;20205;-81
2022/09/29 08:25:11;;;;;;;2.22;1.55;;;12.80;99.90;;;;;;5072747;28;20239;-81
2022/09/29 08:27:41;;;;;;;1.77;1.67;;;12.80;99.90;;;;;;5072766;28;20208;-81
2022/09/29 08:30:22;;;;;;;1.80;1.70;;;12.90;99.90;;;;;;5072508;28;20221;-81
2022/09/29 08:32:53;;;;;;;1.75;1.63;;;13.00;99.90;;;;;;5072901;28;20216;-82
2022/09/29 08:35:21;;;;;;;1.45;1.35;;;13.30;99.90;;;;;;5072652;28;20224;-82
2022/09/29 08:37:49;;;;;;;1.35;1.27;;;13.30;99.90;;;;;;5072057;28;20209;-81
2022/09/29 08:40:18;;;;;;;1.30;1.20;;;13.50;99.90;;;;;;5072927;28;20208;-82
2022/09/29 08:42:57;;;;;;;2.95;1.80;;;13.60;99.90;;;;;;5072622;28;20209;-81
2022/09/29 08:45:29;;;;;;;0.82;0.82;;;13.70;99.90;;;;;;5072797;28;20233;-81
2022/09/29 08:48:06;;;;;;;1.08;1.00;;;13.80;99.90;;;;;;5073061;28;20205;-82
2022/09/29 08:50:56;;;;;;;1.30;1.30;;;13.90;99.90;;;;;;5072099;28;20231;-82
2022/09/29 08:53:28;;;;;;;3.35;1.40;;;14.00;99.90;;;;;;5072784;28;20220;-82
2022/09/29 08:56:00;;;;;;;1.40;1.30;;;14.20;99.90;;;;;;5072874;28;20237;-82
2022/09/29 08:58:31;;;;;;;2.28;1.55;;;14.20;99.90;;;;;;5072722;28;20215;-82
2022/09/29 09:01:09;;;;;;;1.23;1.20;;;14.30;99.90;;;;;;5072666;28;20190;-82
2022/09/29 09:04:23;;;;;;;1.80;1.70;;;14.50;99.90;;;;;;5072534;28;20270;-82
2022/09/29 09:07:06;;;;;;;1.23;1.23;;;14.60;99.90;;;;;;5072047;28;20245;-82
2022/09/29 09:10:03;;;;;;;1.20;1.20;;;14.70;99.90;;;;;;5072284;28;20229;-82
2022/09/29 09:12:51;;;;;;;1.50;1.40;;;15.10;99.90;;;;;;5072825;28;20262;-82
2022/09/29 09:15:36;;;;;;;1.80;1.70;;;15.50;99.90;;;;;;5072256;28;20239;-82
2022/09/29 09:18:23;;;;;;;2.20;1.80;;;15.80;99.90;;;;;;5072718;28;20212;-82
2022/09/29 09:20:59;;;;;;;5.25;1.83;;;16.00;99.90;;;;;;5072291;28;20197;-81
2022/09/29 09:23:36;;;;;;;1.65;1.55;;;16.10;99.90;;;;;;5072308;28;20216;-81
2022/09/29 09:26:05;;;;;;;1.73;1.63;;;16.00;99.90;;;;;;5072270;28;20240;-82
2022/09/29 09:28:35;;;;;;;1.88;1.77;;;15.80;99.90;;;;;;5072470;28;20205;-82
2022/09/29 09:31:08;;;;;;;2.75;1.70;;;15.60;99.90;;;;;;5072200;28;20217;-82
2022/09/29 09:33:44;;;;;;;1.30;1.20;;;15.40;99.90;;;;;;5072129;28;20212;-82
2022/09/29 09:36:30;;;;;;;1.25;1.10;;;15.30;99.90;;;;;;5071985;28;20260;-82
2022/09/29 09:39:05;;;;;;;1.50;1.33;;;15.30;99.90;;;;;;5072389;28;20212;-82
2022/09/29 09:41:37;;;;;;;1.70;1.48;;;15.30;99.90;;;;;;5071855;28;20205;-81
2022/09/29 09:44:14;;;;;;;1.83;1.50;;;15.40;99.90;;;;;;5072403;28;20201;-82
2022/09/29 09:46:48;;;;;;;2.00;1.80;;;15.50;99.90;;;;;;5072155;28;20291;-82
2022/09/29 09:49:21;;;;;;;4.28;1.80;;;15.40;99.90;;;;;;5071613;28;20216;-82
2022/09/29 09:51:56;;;;;;;0.95;0.95;;;15.40;99.90;;;;;;5075251;28;20210;-82
2022/09/29 09:54:30;;;;;;;1.85;1.40;;;15.40;99.90;;;;;;5075491;28;20208;-82
2022/09/29 09:57:38;;;;;;;1.30;1.27;;;15.40;99.90;;;;;;5075830;28;20209;-82
2022/09/29 10:00:12;;;;;;;1.70;1.60;;;15.60;99.90;;;;;;5075343;28;20201;-83
2022/09/29 10:02:45;;;;;;;1.45;1.30;;;15.80;99.90;;;;;;5075839;28;20212;-81
2022/09/29 10:05:16;;;;;;;1.95;1.40;;;15.70;99.90;;;;;;5075893;28;20225;-81
2022/09/29 10:07:45;;;;;;;1.48;1.38;;;15.90;99.90;;;;;;5075449;28;20236;-82
2022/09/29 10:10:18;;;;;;;1.65;1.55;;;16.00;99.90;;;;;;5074871;28;20225;-81
2022/09/29 10:12:46;;;;;;;1.65;1.55;;;16.10;99.90;;;;;;5075225;28;20201;-83
2022/09/29 10:15:22;;;;;;;2.03;1.75;;;16.30;99.90;;;;;;5075593;28;20225;-83
2022/09/29 10:18:02;;;;;;;1.58;1.48;;;16.40;99.90;;;;;;5075784;28;20208;-81
2022/09/29 10:20:36;;;;;;;2.00;1.75;;;16.50;99.90;;;;;;5075199;28;20203;-82
2022/09/29 10:23:27;;;;;;;2.30;1.80;;;16.80;99.90;;;;;;5075471;28;20201;-82
2022/09/29 10:25:58;;;;;;;1.77;1.55;;;17.00;99.90;;;;;;5075048;28;20229;-82
2022/09/29 10:28:30;;;;;;;1.63;1.40;;;17.00;99.90;;;;;;5074942;28;20467;-82
2022/09/29 10:30:58;;;;;;;3.05;2.13;;;17.10;99.90;;;;;;5074888;28;20225;-82
2022/09/29 10:33:28;;;;;;;1.60;1.50;;;17.20;99.90;;;;;;5075473;28;20292;-82
2022/09/29 10:36:10;;;;;;;3.15;1.42;;;17.20;99.90;;;;;;5074772;28;20221;-82
2022/09/29 10:38:39;;;;;;;2.80;2.30;;;17.30;99.90;;;;;;5074579;28;20208;-82
2022/09/29 10:41:08;;;;;;;2.20;1.73;;;17.10;99.90;;;;;;5074513;28;20219;-82
2022/09/29 10:43:38;;;;;;;1.70;1.60;;;17.10;99.90;;;;;;5074999;28;20201;-82
2022/09/29 10:46:35;;;;;;;2.15;1.60;;;17.20;99.90;;;;;;5074825;28;20232;-82
2022/09/29 10:49:13;;;;;;;1.60;1.50;;;17.20;99.90;;;;;;5074521;28;20208;-82
2022/09/29 10:51:49;;;;;;;3.28;2.05;;;17.10;99.90;;;;;;5074493;28;20232;-82
2022/09/29 10:54:17;;;;;;;3.47;1.77;;;16.90;99.90;;;;;;5074791;28;20213;-82
2022/09/29 10:56:48;;;;;;;1.17;1.15;;;16.70;99.90;;;;;;5074442;28;20227;-82
2022/09/29 10:59:18;;;;;;;1.90;1.77;;;16.60;99.90;;;;;;5074404;28;20212;-82
2022/09/29 11:01:50;;;;;;;3.30;1.48;;;16.60;99.90;;;;;;5074339;28;20207;-82
2022/09/29 11:04:24;;;;;;;1.40;1.30;;;16.70;99.90;;;;;;5074573;28;20213;-82
2022/09/29 11:06:53;;;;;;;1.55;1.45;;;16.70;99.90;;;;;;5074187;28;20307;-81
2022/09/29 11:09:30;;;;;;;1.65;1.55;;;16.80;99.90;;;;;;5074402;28;20212;-81
2022/09/29 11:12:00;;;;;;;3.22;2.28;;;17.00;99.90;;;;;;5074141;28;20262;-81
2022/09/29 11:14:41;;;;;;;2.75;1.95;;;17.30;99.90;;;;;;5074526;28;20290;-82
2022/09/29 11:17:22;;;;;;;2.00;1.80;;;17.80;99.90;;;;;;5074330;28;20216;-82
2022/09/29 11:19:53;;;;;;;1.58;1.48;;;18.60;99.90;;;;;;5073919;28;20220;-83
2022/09/29 11:23:07;;;;;;;1.52;1.42;;;19.20;99.90;;;;;;5073886;28;20201;-83
2022/09/29 11:26:06;;;;;;;1.90;1.70;;;19.80;99.90;;;;;;5070402;28;20236;-82
2022/09/29 11:28:58;;;;;;;2.05;1.40;;;20.70;99.90;;;;;;5071075;28;20213;-83
2022/09/29 11:31:40;;;;;;;2.78;1.75;;;21.20;99.90;;;;;;5073868;28;20229;-82
2022/09/29 11:34:37;;;;;;;1.92;1.75;;;21.70;99.90;;;;;;5073855;28;20205;-83
2022/09/29 11:37:20;;;;;;;2.20;1.60;;;21.80;99.90;;;;;;5073450;28;20286;-83
2022/09/29 11:39:58;;;;;;;2.00;1.77;;;21.80;99.90;;;;;;5073843;28;20208;-83
2022/09/29 11:42:45;;;;;;;1.95;1.52;;;21.90;99.90;;;;;;5073405;28;20209;-83
2022/09/29 11:45:17;;;;;;;1.80;1.70;;;21.70;99.90;;;;;;5073516;28;20224;-82
2022/09/29 11:48:22;;;;;;;2.45;1.98;;;21.50;99.90;;;;;;5073605;28;20211;-82
2022/09/29 11:51:04;;;;;;;3.60;1.38;;;20.90;99.90;;;;;;5073426;28;20235;-82
2022/09/29 11:53:46;;;;;;;1.80;1.70;;;20.10;99.90;;;;;;5073525;28;20212;-82
2022/09/29 11:56:34;;;;;;;1.77;1.60;;;19.50;99.90;;;;;;5071777;28;20233;-82
2022/09/29 11:59:20;;;;;;;1.40;1.20;;;19.20;99.90;;;;;;5070782;28;20213;-82
2022/09/29 12:01:58;;;;;;;2.45;1.80;;;19.50;99.90;;;;;;5071102;28;20208;-82
2022/09/29 12:04:40;;;;;;;1.45;1.35;;;19.90;99.90;;;;;;5071344;28;20216;-82
2022/09/29 12:07:17;;;;;;;1.80;1.70;;;19.70;99.90;;;;;;5071593;28;20220;-82
2022/09/29 12:10:24;;;;;;;1.42;1.33;;;19.60;99.90;;;;;;5070599;28;20212;-82
2022/09/29 12:13:05;;;;;;;1.48;1.38;;;19.60;99.90;;;;;;5070275;28;20213;-82
2022/09/29 12:15:45;;;;;;;2.15;1.83;;;19.70;99.90;;;;;;5070901;28;20237;-82
2022/09/29 12:18:16;;;;;;;3.20;1.90;;;19.60;99.90;;;;;;5070873;28;20219;-81
2022/09/29 12:20:49;;;;;;;1.50;1.40;;;19.60;99.90;;;;;;5070609;28;20216;-82
2022/09/29 12:23:21;;;;;;;1.40;1.30;;;19.40;99.90;;;;;;5070955;28;20212;-82
2022/09/29 12:25:56;;;;;;;1.80;1.70;;;19.30;99.90;;;;;;5070620;28;20241;-83
2022/09/29 12:28:30;;;;;;;1.70;1.60;;;19.60;99.90;;;;;;5070786;28;20208;-83
2022/09/29 12:31:03;;;;;;;2.70;2.00;;;20.00;99.90;;;;;;5071098;28;20228;-82
2022/09/29 12:33:36;;;;;;;2.90;2.00;;;20.60;99.90;;;;;;5071160;28;20213;-82
2022/09/29 12:39:13;;;;;;;3.20;1.63;;;21.50;99.80;;;;;;5070630;28;20209;-82
2022/09/29 12:41:48;;;;;;;3.10;2.22;;;21.30;99.10;;;;;;5070492;28;20216;-82
2022/09/29 12:44:27;;;;;;;2.85;1.83;;;21.30;99.00;;;;;;5070344;28;20211;-82
2022/09/29 12:47:03;;;;;;;1.67;1.52;;;21.60;99.60;;;;;;5070532;28;20221;-82
2022/09/29 12:49:36;;;;;;;1.67;1.55;;;21.80;98.60;;;;;;5070445;28;20208;-82
2022/09/29 12:52:10;;;;;;;1.50;1.40;;;22.10;98.50;;;;;;5070294;28;20233;-82
2022/09/29 12:54:43;;;;;;;1.60;1.50;;;22.60;98.40;;;;;;5070326;28;20220;-82
2022/09/29 12:57:15;;;;;;;2.97;1.10;;;22.70;97.60;;;;;;5070601;28;20213;-83
2022/09/29 12:59:54;;;;;;;0.98;0.98;;;22.60;96.90;;;;;;5070403;28;20213;-83
2022/09/29 13:02:59;;;;;;;1.98;1.70;;;22.70;96.70;;;;;;5070766;28;20213;-82
2022/09/29 13:06:07;;;;;;;1.92;1.70;;;22.70;97.70;;;;;;5036523;28;20229;-82
2022/09/29 13:08:51;;;;;;;2.30;1.63;;;22.80;97.20;;;;;;5070440;28;20216;-82
2022/09/29 13:11:51;;;;;;;1.40;1.30;;;22.70;95.60;;;;;;5070151;28;20240;-82
2022/09/29 13:14:34;;;;;;;4.78;1.73;;;22.50;96.20;;;;;;5070102;28;20209;-82
2022/09/29 13:17:27;;;;;;;1.67;1.58;;;22.10;96.20;;;;;;5070194;28;20223;-82
2022/09/29 13:20:22;;;;;;;11.07;1.38;;;21.60;96.40;;;;;;5070571;28;20209;-82
2022/09/29 13:23:10;;;;;;;7.63;2.08;;;21.10;95.90;;;;;;5070286;28;20197;-82
2022/09/29 13:25:45;;;;;;;4.13;1.73;;;20.60;96.30;;;;;;5073028;28;20236;-83